Aiwamaru — JD2602 — position and weather

sailwx.info

Track history (hours):
 
Tides and Currents Weather Stations Pressure Air Temp Water Temp Dewpoint Dewpoint Depression Visibility Wind Speed Wind Dir Waves Ship Positions

Aiwamaru

Last reported at 2014-Sep-17 06:25 UTC. Time now 2014-Sep-17 07:36 UTC.
Position N 35°55' E 140°41'.

Length 64 m; draft 4.8 m.

Type: Tanker. MMSI: 431000508.

Date/timePositionNaut miles runAvg speedWind from/ knotsBaromVisibWave heightAir tempDewpointWater temp
2014-Sep-17 06:25N 35°55' E 140°41'2 1.6
2014-Sep-17 05:23N 35°53' E 140°41'0 0.0
2014-Sep-17 04:33N 35°53' E 140°41'0 0.0
2014-Sep-17 03:32N 35°53' E 140°41'5 4.0
2014-Sep-17 02:21N 35°54' E 140°47'4110.7
2014-Sep-16 22:30N 35°15' E 140°31'1212.0
2014-Sep-16 21:30N 35°06' E 140°22'1313.5
2014-Sep-16 20:30N 34°58' E 140°08'1913.1
2014-Sep-16 19:03N 34°51' E 139°47'  
2014-Sep-14 13:05N 34°53' E 139°58'5 9.4
2014-Sep-14 12:33N 34°56' E 140°03'1111.0
2014-Sep-14 11:30N 35°02' E 140°14'4812.1
2014-Sep-14 07:33N 35°39' E 140°52'18 8.9
2014-Sep-14 05:28N 35°55' E 140°42'0 0.1
2014-Sep-14 04:27N 35°55' E 140°42'0 0.0
2014-Sep-14 03:32N 35°55' E 140°42'2 0.4
2014-Sep-13 21:33N 35°53' E 140°41'0 0.0
2014-Sep-13 20:33N 35°53' E 140°41'0 0.0
2014-Sep-13 19:33N 35°53' E 140°41'0 0.0
2014-Sep-13 18:33N 35°53' E 140°41'0 0.0
2014-Sep-13 17:30N 35°53' E 140°41'0 0.0
2014-Sep-13 16:31N 35°53' E 140°41'0 0.0
2014-Sep-13 15:33N 35°53' E 140°41'0 0.0
2014-Sep-13 14:33N 35°53' E 140°41'0 0.0
2014-Sep-13 13:33N 35°53' E 140°41'0 0.0
2014-Sep-13 12:32N 35°53' E 140°41'0 0.0
2014-Sep-13 11:33N 35°53' E 140°41'0 0.0
2014-Sep-13 10:34N 35°53' E 140°41'6 0.6
2014-Sep-12 23:30N 35°59' E 140°42'0 0.0
2014-Sep-12 22:33N 35°59' E 140°42'0 0.0
2014-Sep-12 21:32N 35°59' E 140°42'0 0.0
2014-Sep-12 20:33N 35°59' E 140°42'0 0.0
2014-Sep-12 19:34N 35°59' E 140°42'9 8.7
2014-Sep-12 18:33N 36°08' E 140°45'1313.0
2014-Sep-12 17:33N 36°20' E 140°49'  
Track history (hours):
 
Tides and Currents Weather Stations Pressure Air Temp Water Temp Dewpoint Dewpoint Depression Visibility Wind Speed Wind Dir Waves Ship Positions

Aiwamaru

Last reported at 2014-Sep-17 06:25 UTC. Time now 2014-Sep-17 07:36 UTC.
Position N 35°55' E 140°41'.

Length 64 m; draft 4.8 m.

Type: Tanker. MMSI: 431000508.

Date/timePositionNaut miles runAvg speedWind from/ knotsBaromVisibWave heightAir tempDewpointWater temp
2014-Sep-17 06:25N 35°55' E 140°41'2 1.6
2014-Sep-17 05:23N 35°53' E 140°41'0 0.0
2014-Sep-17 04:33N 35°53' E 140°41'0 0.0
2014-Sep-17 03:32N 35°53' E 140°41'5 4.0
2014-Sep-17 02:21N 35°54' E 140°47'4110.7
2014-Sep-16 22:30N 35°15' E 140°31'1212.0
2014-Sep-16 21:30N 35°06' E 140°22'1313.5
2014-Sep-16 20:30N 34°58' E 140°08'1913.1
2014-Sep-16 19:03N 34°51' E 139°47'  
2014-Sep-14 13:05N 34°53' E 139°58'5 9.4
2014-Sep-14 12:33N 34°56' E 140°03'1111.0
2014-Sep-14 11:30N 35°02' E 140°14'4812.1
2014-Sep-14 07:33N 35°39' E 140°52'18 8.9
2014-Sep-14 05:28N 35°55' E 140°42'0 0.1
2014-Sep-14 04:27N 35°55' E 140°42'0 0.0
2014-Sep-14 03:32N 35°55' E 140°42'2 0.4
2014-Sep-13 21:33N 35°53' E 140°41'0 0.0
2014-Sep-13 20:33N 35°53' E 140°41'0 0.0
2014-Sep-13 19:33N 35°53' E 140°41'0 0.0
2014-Sep-13 18:33N 35°53' E 140°41'0 0.0
2014-Sep-13 17:30N 35°53' E 140°41'0 0.0
2014-Sep-13 16:31N 35°53' E 140°41'0 0.0
2014-Sep-13 15:33N 35°53' E 140°41'0 0.0
2014-Sep-13 14:33N 35°53' E 140°41'0 0.0
2014-Sep-13 13:33N 35°53' E 140°41'0 0.0
2014-Sep-13 12:32N 35°53' E 140°41'0 0.0
2014-Sep-13 11:33N 35°53' E 140°41'0 0.0
2014-Sep-13 10:34N 35°53' E 140°41'6 0.6
2014-Sep-12 23:30N 35°59' E 140°42'0 0.0
2014-Sep-12 22:33N 35°59' E 140°42'0 0.0
2014-Sep-12 21:32N 35°59' E 140°42'0 0.0
2014-Sep-12 20:33N 35°59' E 140°42'0 0.0
2014-Sep-12 19:34N 35°59' E 140°42'9 8.7
2014-Sep-12 18:33N 36°08' E 140°45'1313.0
2014-Sep-12 17:33N 36°20' E 140°49'  

Dump ship's entire track history